Time;durP1;ratioP1;P1;durP2;ratioP2;P2;SDS_P1;SDS_P2;PMS_P1;PMS_P2;Temp;Humidity;BMP_temperature;BMP_pressure;BME280_temperature;BME280_humidity;BME280_pressure;Samples;Min_cycle;Max_cycle;Signal;HPM_P1;HPM_P2
2021/03/21 00:01:46;;;;;;;13.97;10.13;;;4.70;99.90;;;;;;4882548;29;20206;-90
2021/03/21 00:04:24;;;;;;;13.30;11.10;;;4.70;99.90;;;;;;4882386;29;20211;-90
2021/03/21 00:06:53;;;;;;;11.57;10.17;;;4.70;99.90;;;;;;4882390;29;20174;-88
2021/03/21 00:09:19;;;;;;;13.27;10.17;;;4.70;99.90;;;;;;4882668;29;20630;-93
2021/03/21 00:14:57;;;;;;;12.87;9.80;;;4.70;99.90;;;;;;4899366;29;20183;-89
2021/03/21 00:17:22;;;;;;;10.50;8.83;;;4.80;99.90;;;;;;4882594;29;20167;-91
2021/03/21 00:19:49;;;;;;;10.50;7.70;;;4.80;99.90;;;;;;4897686;29;20250;-93
2021/03/21 00:22:18;;;;;;;10.37;7.93;;;4.90;99.90;;;;;;4897894;29;20203;-90
2021/03/21 00:24:54;;;;;;;9.07;7.63;;;4.90;99.90;;;;;;4898014;29;20573;-91
2021/03/21 00:27:30;;;;;;;11.07;7.00;;;4.90;99.90;;;;;;4898065;29;20185;-91
2021/03/21 00:35:48;;;;;;;5.00;3.87;;;4.90;99.90;;;;;;4932231;29;20292;-91
2021/03/21 00:38:35;;;;;;;4.83;4.03;;;4.90;99.90;;;;;;4919946;29;20182;-93
2021/03/21 00:41:20;;;;;;;4.10;3.67;;;4.80;99.90;;;;;;4920378;29;20211;-90
2021/03/21 00:43:57;;;;;;;3.87;3.33;;;4.70;99.90;;;;;;4923697;29;20183;-92
2021/03/21 00:46:26;;;;;;;4.47;3.10;;;4.80;99.90;;;;;;4923642;29;20173;-93
2021/03/21 00:49:02;;;;;;;3.90;3.23;;;4.80;99.90;;;;;;4923603;29;20171;-93
2021/03/21 00:51:36;;;;;;;5.70;3.20;;;4.90;99.90;;;;;;4923487;29;20204;-92
2021/03/21 00:54:09;;;;;;;3.33;2.77;;;4.90;99.90;;;;;;4923629;29;20202;-91
2021/03/21 00:56:44;;;;;;;3.10;2.40;;;4.80;99.90;;;;;;4923349;29;20220;-92
2021/03/21 00:59:17;;;;;;;3.97;2.70;;;5.00;99.90;;;;;;4923512;29;20177;-93
2021/03/21 01:01:51;;;;;;;3.87;2.60;;;4.90;99.90;;;;;;4923363;29;20261;-92
2021/03/21 01:04:17;;;;;;;2.47;2.23;;;4.90;99.90;;;;;;5268838;23;20241;-91
2021/03/21 01:06:42;;;;;;;2.53;2.00;;;4.90;99.90;;;;;;4905390;29;20190;-90
2021/03/21 01:09:12;;;;;;;3.43;2.97;;;4.80;99.90;;;;;;4905352;29;20185;-92
2021/03/21 01:11:39;;;;;;;3.87;2.73;;;4.80;99.90;;;;;;4905219;29;20200;-91
2021/03/21 01:14:06;;;;;;;3.23;2.90;;;4.70;99.90;;;;;;4904725;29;20194;-91
2021/03/21 01:16:38;;;;;;;3.00;2.70;;;4.70;99.90;;;;;;4921833;29;20171;-92
2021/03/21 01:19:06;;;;;;;4.00;3.10;;;4.70;99.90;;;;;;4906541;29;20528;-92
2021/03/21 01:21:34;;;;;;;4.30;3.37;;;4.70;99.90;;;;;;4921757;29;20186;-91
2021/03/21 01:23:59;;;;;;;4.87;3.50;;;4.80;99.90;;;;;;4904729;29;20218;-93
2021/03/21 01:26:27;;;;;;;4.13;3.73;;;4.80;99.90;;;;;;4904592;29;20213;-91
2021/03/21 01:28:56;;;;;;;3.90;3.50;;;4.80;99.90;;;;;;4904973;29;20193;-90
2021/03/21 01:31:24;;;;;;;3.97;3.57;;;4.80;99.90;;;;;;4921552;29;20193;-96
2021/03/21 01:33:50;;;;;;;5.23;3.60;;;4.80;99.90;;;;;;4904467;29;20269;-94
2021/03/21 01:36:21;;;;;;;6.90;3.70;;;4.80;99.90;;;;;;4922948;29;20202;-96
2021/03/21 01:38:49;;;;;;;4.93;3.40;;;4.70;99.90;;;;;;4923426;29;20321;-96
2021/03/21 01:41:21;;;;;;;4.20;3.80;;;4.60;99.90;;;;;;4923112;29;20605;-96
2021/03/21 01:43:47;;;;;;;4.50;3.60;;;4.70;99.90;;;;;;4921376;29;20190;-91
2021/03/21 01:46:26;;;;;;;4.20;3.80;;;4.70;99.90;;;;;;4916060;29;20197;-91
2021/03/21 01:48:55;;;;;;;5.30;3.73;;;4.70;99.90;;;;;;4940343;29;20227;-91
2021/03/21 01:51:34;;;;;;;5.03;4.13;;;4.70;99.90;;;;;;4923829;29;20192;-93
2021/03/21 01:54:05;;;;;;;3.57;3.20;;;4.80;99.90;;;;;;4920030;29;20188;-91
2021/03/21 01:56:33;;;;;;;5.27;3.57;;;4.60;99.90;;;;;;4921939;29;20200;-92
2021/03/21 01:59:13;;;;;;;4.33;3.80;;;4.60;99.90;;;;;;4905518;29;20276;-91
2021/03/21 02:01:39;;;;;;;4.30;3.70;;;4.70;99.90;;;;;;4904484;29;20217;-92
2021/03/21 02:04:05;;;;;;;3.63;3.27;;;4.60;99.90;;;;;;4922642;29;20230;-91
2021/03/21 02:06:37;;;;;;;3.67;3.13;;;4.60;99.90;;;;;;4922991;29;20185;-91
2021/03/21 02:09:14;;;;;;;5.80;3.13;;;4.60;99.90;;;;;;4922916;29;20201;-92
2021/03/21 02:12:05;;;;;;;3.40;3.00;;;4.60;99.90;;;;;;4923070;29;20588;-92
2021/03/21 02:15:10;;;;;;;3.93;3.33;;;4.60;99.90;;;;;;4922674;29;20220;-91
2021/03/21 02:17:57;;;;;;;3.87;3.47;;;4.60;99.90;;;;;;4939373;29;20175;-92
2021/03/21 02:21:04;;;;;;;4.53;3.07;;;4.50;99.90;;;;;;4938987;29;20192;-91
2021/03/21 02:24:00;;;;;;;3.73;3.10;;;4.50;99.90;;;;;;4922330;29;20189;-92
2021/03/21 02:27:00;;;;;;;3.63;3.00;;;4.50;99.90;;;;;;4922770;29;20206;-91
2021/03/21 02:29:40;;;;;;;4.63;3.20;;;4.50;99.90;;;;;;4925056;29;20295;-91
2021/03/21 02:32:18;;;;;;;4.07;3.43;;;4.50;99.90;;;;;;4929874;29;20190;-93
2021/03/21 02:35:05;;;;;;;4.53;3.23;;;4.50;99.90;;;;;;4928808;29;20185;-91
2021/03/21 02:37:40;;;;;;;3.73;3.23;;;4.50;99.90;;;;;;4924719;29;20266;-91
2021/03/21 02:40:05;;;;;;;3.97;3.57;;;4.50;99.90;;;;;;4925138;29;20233;-92
2021/03/21 02:42:35;;;;;;;4.73;3.80;;;4.60;99.90;;;;;;4925354;29;20181;-90
2021/03/21 02:45:16;;;;;;;4.60;4.13;;;4.60;99.90;;;;;;4941527;29;20548;-90
2021/03/21 02:47:43;;;;;;;6.33;4.10;;;4.60;99.90;;;;;;4923123;29;20241;-92
2021/03/21 02:50:26;;;;;;;5.23;4.07;;;4.50;99.90;;;;;;4941918;29;20255;-92
2021/03/21 02:52:59;;;;;;;5.43;4.90;;;4.50;99.90;;;;;;4943404;29;20590;-91
2021/03/21 02:55:40;;;;;;;5.87;4.13;;;4.50;99.90;;;;;;4945309;29;20173;-93
2021/03/21 02:58:34;;;;;;;5.50;4.63;;;4.60;99.90;;;;;;4942653;29;20623;-91
2021/03/21 03:01:08;;;;;;;5.00;4.50;;;4.50;99.90;;;;;;4942667;29;20181;-93
2021/03/21 03:03:36;;;;;;;5.70;5.07;;;4.60;99.90;;;;;;4943770;28;20187;-94
2021/03/21 03:06:09;;;;;;;7.30;4.70;;;4.70;99.90;;;;;;4943020;29;20618;-92
2021/03/21 03:08:44;;;;;;;5.47;4.90;;;4.70;99.90;;;;;;4943226;29;20184;-91
2021/03/21 03:11:20;;;;;;;7.40;5.00;;;4.80;99.90;;;;;;4941929;29;20207;-92
2021/03/21 03:13:57;;;;;;;5.47;4.93;;;4.90;99.90;;;;;;4940693;29;20185;-92
2021/03/21 03:16:24;;;;;;;5.80;4.90;;;4.90;99.90;;;;;;4940620;29;20261;-92
2021/03/21 03:19:43;;;;;;;6.03;5.40;;;4.90;99.90;;;;;;4936938;29;20193;-90
2021/03/21 03:22:57;;;;;;;6.13;5.33;;;4.90;99.90;;;;;;4887603;29;20195;-90
2021/03/21 03:25:36;;;;;;;8.80;6.23;;;4.80;99.90;;;;;;4921476;29;20602;-91
2021/03/21 03:28:30;;;;;;;7.93;5.90;;;4.80;99.90;;;;;;4921622;29;20272;-93
2021/03/21 03:31:15;;;;;;;6.47;5.77;;;4.80;99.90;;;;;;4923011;29;20190;-93
2021/03/21 03:33:42;;;;;;;7.00;5.73;;;4.80;99.90;;;;;;4921494;29;20188;-90
2021/03/21 03:36:15;;;;;;;6.53;5.40;;;4.80;99.90;;;;;;4922415;29;20185;-91
2021/03/21 03:38:44;;;;;;;6.47;5.70;;;4.80;99.90;;;;;;4921337;29;20181;-91
2021/03/21 03:41:30;;;;;;;7.10;5.47;;;4.80;99.90;;;;;;4921827;29;20182;-90
2021/03/21 03:44:10;;;;;;;6.20;5.37;;;4.80;99.90;;;;;;4938576;29;20201;-91
2021/03/21 03:46:43;;;;;;;5.60;4.90;;;4.90;99.90;;;;;;4920870;29;20186;-92
2021/03/21 03:49:28;;;;;;;6.63;5.10;;;4.80;99.90;;;;;;4921306;29;20598;-93
2021/03/21 03:52:19;;;;;;;6.00;4.80;;;4.80;99.90;;;;;;4919755;29;20186;-92
2021/03/21 03:55:08;;;;;;;5.30;4.80;;;5.00;99.90;;;;;;4921545;29;20174;-92
2021/03/21 03:57:42;;;;;;;5.67;5.10;;;5.00;99.90;;;;;;4921220;29;20174;-91
2021/03/21 04:00:31;;;;;;;6.40;4.87;;;4.90;99.90;;;;;;4921186;29;20170;-91
2021/03/21 04:03:14;;;;;;;5.40;4.67;;;4.80;99.90;;;;;;4923094;29;20229;-91
2021/03/21 04:05:46;;;;;;;5.53;4.70;;;4.80;99.90;;;;;;4920894;29;20239;-92
2021/03/21 04:08:18;;;;;;;5.53;4.93;;;4.80;99.90;;;;;;4921751;29;20181;-91
2021/03/21 04:11:00;;;;;;;6.40;5.23;;;4.90;99.90;;;;;;4921066;29;20173;-90
2021/03/21 04:13:34;;;;;;;4.93;4.20;;;5.00;99.90;;;;;;4921996;29;20212;-90
2021/03/21 04:16:00;;;;;;;5.80;4.63;;;5.00;99.90;;;;;;4920607;29;20203;-92
2021/03/21 04:18:59;;;;;;;4.77;4.27;;;4.90;99.90;;;;;;4921496;29;20189;-91
2021/03/21 04:21:38;;;;;;;4.43;4.03;;;5.00;99.90;;;;;;4922341;29;20280;-93
2021/03/21 04:24:10;;;;;;;4.57;4.07;;;5.10;99.90;;;;;;4920630;29;20210;-91
2021/03/21 04:26:55;;;;;;;6.07;4.93;;;5.20;99.90;;;;;;4921661;29;20197;-91
2021/03/21 04:29:27;;;;;;;5.97;4.43;;;5.20;99.90;;;;;;4921871;29;20273;-91
2021/03/21 04:31:57;;;;;;;5.33;4.67;;;5.20;99.90;;;;;;4920926;29;20181;-91
2021/03/21 04:34:24;;;;;;;5.77;4.70;;;5.20;99.90;;;;;;4922701;29;20190;-92
2021/03/21 04:36:51;;;;;;;5.97;4.43;;;5.10;99.90;;;;;;4921409;29;20184;-89
2021/03/21 04:39:21;;;;;;;6.43;4.80;;;5.10;99.90;;;;;;4920840;29;20237;-91
2021/03/21 04:41:50;;;;;;;5.93;4.53;;;5.20;99.90;;;;;;4929875;29;20195;-92
2021/03/21 04:44:44;;;;;;;5.60;4.90;;;5.30;99.90;;;;;;4939960;29;20212;-91
2021/03/21 04:47:23;;;;;;;5.90;4.80;;;5.30;99.90;;;;;;4941939;29;20683;-92
2021/03/21 04:49:49;;;;;;;6.00;4.97;;;5.20;99.90;;;;;;4959349;29;20169;-90
2021/03/21 04:52:22;;;;;;;5.60;4.90;;;5.30;99.90;;;;;;4934621;29;20268;-91
2021/03/21 04:54:50;;;;;;;5.23;4.73;;;5.40;99.90;;;;;;4922302;29;20174;-91
2021/03/21 04:57:27;;;;;;;5.33;4.80;;;5.30;99.90;;;;;;4921827;29;20544;-92
2021/03/21 04:59:54;;;;;;;6.17;4.43;;;5.30;99.90;;;;;;4924174;29;20651;-92
2021/03/21 05:02:31;;;;;;;6.80;4.40;;;5.30;99.90;;;;;;4923244;29;20182;-91
2021/03/21 05:05:02;;;;;;;4.90;4.17;;;5.40;99.90;;;;;;4921990;29;20327;-90
2021/03/21 05:08:05;;;;;;;8.07;4.73;;;5.30;99.90;;;;;;4921473;29;20245;-93
2021/03/21 05:10:33;;;;;;;5.83;4.43;;;5.30;99.90;;;;;;4922336;29;20258;-91
2021/03/21 05:13:26;;;;;;;5.07;4.00;;;5.30;99.90;;;;;;4923736;29;20188;-91
2021/03/21 05:15:57;;;;;;;5.53;4.93;;;5.30;99.90;;;;;;4921569;29;20655;-92
2021/03/21 05:18:42;;;;;;;5.50;4.47;;;5.50;99.90;;;;;;4921206;29;20177;-92
2021/03/21 05:21:36;;;;;;;5.37;4.40;;;5.50;99.90;;;;;;4921743;29;20192;-91
2021/03/21 05:24:25;;;;;;;4.73;4.23;;;5.40;99.90;;;;;;4903274;29;20183;-93
2021/03/21 05:27:10;;;;;;;4.43;3.73;;;5.40;99.90;;;;;;4920539;29;20233;-96
2021/03/21 05:29:50;;;;;;;4.50;4.07;;;5.40;99.90;;;;;;4906154;29;20192;-94
2021/03/21 05:32:18;;;;;;;4.40;4.00;;;5.60;99.90;;;;;;4908510;29;20212;-96
2021/03/21 05:34:44;;;;;;;4.43;4.00;;;5.60;99.90;;;;;;4906460;29;20273;-96
2021/03/21 05:37:13;;;;;;;5.40;4.00;;;5.60;99.90;;;;;;4904948;29;20281;-96
2021/03/21 05:40:00;;;;;;;4.27;3.43;;;5.70;99.90;;;;;;4905768;29;20524;-96
2021/03/21 05:42:44;;;;;;;4.30;2.90;;;5.70;99.90;;;;;;4905661;29;20194;-96
2021/03/21 05:45:41;;;;;;;4.10;3.20;;;5.70;99.90;;;;;;4904954;29;20271;-95
2021/03/21 05:48:31;;;;;;;3.37;2.97;;;5.60;99.90;;;;;;4905550;29;20274;-91
2021/03/21 05:51:23;;;;;;;3.10;2.53;;;5.70;99.90;;;;;;4906258;29;20521;-91
2021/03/21 05:53:51;;;;;;;4.10;3.10;;;5.70;99.90;;;;;;4904755;29;20210;-91
2021/03/21 05:56:54;;;;;;;3.30;2.50;;;5.70;99.90;;;;;;4905007;29;20210;-91
2021/03/21 05:59:52;;;;;;;3.97;2.17;;;5.70;99.90;;;;;;4909024;29;20618;-90
2021/03/21 06:02:20;;;;;;;3.17;1.80;;;5.70;99.90;;;;;;4903527;29;20195;-92
2021/03/21 06:05:20;;;;;;;4.20;1.70;;;5.70;99.90;;;;;;4906435;29;20246;-90
2021/03/21 06:08:14;;;;;;;2.60;1.63;;;5.70;99.90;;;;;;4906269;29;20179;-92
2021/03/21 06:11:03;;;;;;;2.90;1.57;;;5.80;99.90;;;;;;4904804;29;20245;-96
2021/03/21 06:13:52;;;;;;;3.30;1.73;;;5.80;99.90;;;;;;4905424;29;20171;-96
2021/03/21 06:16:29;;;;;;;3.87;1.90;;;5.80;99.90;;;;;;4906972;29;20210;-91
2021/03/21 06:19:37;;;;;;;4.17;2.00;;;5.80;99.90;;;;;;4907102;29;20171;-91
2021/03/21 06:22:20;;;;;;;3.17;1.83;;;5.80;99.90;;;;;;4915748;29;20621;-92
2021/03/21 06:25:17;;;;;;;5.13;1.90;;;5.80;99.90;;;;;;4923076;29;20387;-90
2021/03/21 06:28:14;;;;;;;5.40;2.40;;;5.70;99.90;;;;;;4942812;29;20237;-91
2021/03/21 06:30:54;;;;;;;5.60;2.67;;;5.70;99.90;;;;;;4881089;29;20720;-91
2021/03/21 06:33:32;;;;;;;4.67;2.43;;;5.70;99.90;;;;;;4961268;29;20181;-91
2021/03/21 06:36:12;;;;;;;4.97;2.70;;;5.70;99.90;;;;;;4959182;29;20260;-90
2021/03/21 06:38:45;;;;;;;3.97;2.50;;;5.70;99.90;;;;;;4942659;29;20184;-91
2021/03/21 06:41:17;;;;;;;4.30;2.60;;;5.70;99.90;;;;;;4944399;29;20179;-91
2021/03/21 06:44:20;;;;;;;3.70;2.80;;;5.60;99.90;;;;;;4942649;29;20262;-92
2021/03/21 06:46:45;;;;;;;5.53;2.80;;;5.60;99.90;;;;;;4941278;29;20193;-91
2021/03/21 06:49:34;;;;;;;3.60;2.53;;;5.60;99.90;;;;;;4941215;29;20522;-91
2021/03/21 06:52:23;;;;;;;5.33;2.40;;;5.60;99.90;;;;;;4941220;29;20184;-91
2021/03/21 06:55:04;;;;;;;2.47;2.10;;;5.60;99.90;;;;;;4959401;29;20153;-91
2021/03/21 06:58:03;;;;;;;5.87;2.40;;;5.60;99.90;;;;;;4958360;29;20158;-91
2021/03/21 07:00:49;;;;;;;5.03;2.00;;;5.60;99.90;;;;;;4953605;29;20248;-90
2021/03/21 07:03:33;;;;;;;3.90;1.70;;;5.60;99.90;;;;;;4939969;29;20172;-91
2021/03/21 07:06:17;;;;;;;6.40;1.70;;;5.60;99.90;;;;;;4922408;29;20714;-91
2021/03/21 07:09:22;;;;;;;3.97;1.53;;;5.70;99.90;;;;;;4921869;29;20193;-90
2021/03/21 07:12:21;;;;;;;5.80;1.43;;;5.80;99.90;;;;;;4938839;29;20174;-94
2021/03/21 07:14:46;;;;;;;6.73;1.70;;;5.80;99.90;;;;;;4921919;29;20185;-90
2021/03/21 07:17:37;;;;;;;4.13;1.30;;;5.90;99.90;;;;;;4921719;29;20348;-90
2021/03/21 07:20:28;;;;;;;6.83;1.30;;;5.80;99.90;;;;;;4921739;29;20212;-91
2021/03/21 07:23:16;;;;;;;5.57;1.37;;;5.80;99.90;;;;;;4921895;29;20177;-95
2021/03/21 07:26:02;;;;;;;13.70;2.33;;;5.90;99.90;;;;;;4921609;29;20214;-91
2021/03/21 07:28:52;;;;;;;18.53;2.83;;;5.80;99.90;;;;;;4921709;29;20186;-90
2021/03/21 07:31:35;;;;;;;16.83;2.50;;;5.80;99.90;;;;;;4938375;29;20194;-90
2021/03/21 07:34:10;;;;;;;16.30;2.80;;;5.70;99.90;;;;;;4921609;29;20189;-91
2021/03/21 07:36:51;;;;;;;17.87;3.00;;;5.60;99.90;;;;;;4922258;29;20296;-89
2021/03/21 07:39:20;;;;;;;15.13;2.93;;;5.60;99.90;;;;;;4921619;29;20253;-89
2021/03/21 07:42:18;;;;;;;19.83;3.57;;;5.50;99.90;;;;;;4921481;29;20186;-90
2021/03/21 07:45:19;;;;;;;19.83;3.47;;;5.50;99.90;;;;;;4923326;29;20311;-90
2021/03/21 07:48:11;;;;;;;20.73;3.77;;;5.50;99.90;;;;;;4922093;29;20183;-89
2021/03/21 07:50:54;;;;;;;22.83;3.60;;;5.50;99.90;;;;;;4914598;29;20274;-90
2021/03/21 07:53:22;;;;;;;23.30;4.60;;;5.50;99.90;;;;;;4922224;29;20182;-90
2021/03/21 07:55:53;;;;;;;23.77;4.23;;;5.50;99.90;;;;;;4924330;29;20189;-90
2021/03/21 07:58:35;;;;;;;18.60;3.77;;;5.40;99.90;;;;;;4926739;29;20219;-90
2021/03/21 08:01:02;;;;;;;21.77;5.13;;;5.50;99.90;;;;;;4926830;29;20201;-90
2021/03/21 08:03:35;;;;;;;22.13;4.00;;;5.50;99.90;;;;;;4914597;29;20277;-90
2021/03/21 08:06:04;;;;;;;22.33;4.23;;;5.50;99.90;;;;;;4921611;29;20678;-91
2021/03/21 08:08:36;;;;;;;28.13;4.63;;;5.50;99.90;;;;;;4901829;29;20182;-90
2021/03/21 08:11:03;;;;;;;25.60;3.83;;;5.50;99.90;;;;;;4919169;29;20261;-90
2021/03/21 08:13:53;;;;;;;26.93;5.13;;;5.50;99.90;;;;;;4919484;29;20636;-91
2021/03/21 08:16:28;;;;;;;26.17;4.10;;;5.50;99.90;;;;;;4911406;29;20182;-90
2021/03/21 08:18:54;;;;;;;23.10;4.27;;;5.50;99.90;;;;;;4912757;29;20189;-89
2021/03/21 08:21:32;;;;;;;27.80;4.40;;;5.60;99.90;;;;;;4913257;29;20265;-89
2021/03/21 08:24:06;;;;;;;25.73;4.57;;;5.70;99.90;;;;;;4921294;29;20521;-90
2021/03/21 08:26:32;;;;;;;28.97;4.97;;;5.80;99.90;;;;;;4920771;29;20284;-90
2021/03/21 08:29:06;;;;;;;31.13;4.93;;;5.80;99.90;;;;;;4921446;29;20182;-92
2021/03/21 08:31:44;;;;;;;25.10;4.53;;;5.90;99.90;;;;;;4922091;29;20190;-91
2021/03/21 08:34:22;;;;;;;35.00;5.07;;;5.90;99.90;;;;;;4921247;29;20181;-90
2021/03/21 08:36:47;;;;;;;22.27;4.37;;;5.90;99.90;;;;;;4921963;29;20613;-91
2021/03/21 08:39:16;;;;;;;23.57;4.30;;;6.00;99.90;;;;;;4920523;29;20265;-92
2021/03/21 08:41:49;;;;;;;23.90;4.37;;;6.00;99.90;;;;;;4920707;29;20174;-92
2021/03/21 08:44:31;;;;;;;21.60;5.03;;;6.00;99.90;;;;;;4921467;29;20216;-90
2021/03/21 08:46:57;;;;;;;26.77;4.33;;;6.00;99.90;;;;;;4920916;29;20185;-91
2021/03/21 08:49:27;;;;;;;28.27;5.20;;;6.00;99.90;;;;;;4920685;29;20189;-90
2021/03/21 08:51:53;;;;;;;32.40;5.00;;;6.00;99.90;;;;;;4921653;29;20672;-92
2021/03/21 08:54:28;;;;;;;32.73;5.47;;;6.00;99.90;;;;;;4921778;29;20225;-90
2021/03/21 08:56:57;;;;;;;30.10;4.70;;;6.00;99.90;;;;;;4921462;29;20212;-91
2021/03/21 08:59:30;;;;;;;25.40;4.67;;;6.00;99.90;;;;;;4921460;29;20186;-91
2021/03/21 09:02:05;;;;;;;32.03;5.07;;;5.90;99.90;;;;;;4938609;29;20190;-92
2021/03/21 09:04:32;;;;;;;30.03;5.27;;;5.90;99.90;;;;;;4924105;29;20233;-91
2021/03/21 09:07:15;;;;;;;27.80;4.83;;;6.00;99.90;;;;;;4925006;29;20182;-92
2021/03/21 09:09:41;;;;;;;27.03;5.30;;;5.90;99.90;;;;;;4924534;29;20193;-91
2021/03/21 09:12:30;;;;;;;30.67;4.87;;;5.90;99.90;;;;;;4924972;29;20624;-90
2021/03/21 09:15:14;;;;;;;28.50;5.33;;;5.90;99.90;;;;;;4924900;29;20178;-91
2021/03/21 09:17:39;;;;;;;34.83;5.83;;;5.90;99.90;;;;;;4925795;29;20188;-91
2021/03/21 09:20:06;;;;;;;28.23;4.70;;;5.90;99.90;;;;;;4941423;29;20257;-89
2021/03/21 09:22:41;;;;;;;32.00;5.13;;;6.00;99.90;;;;;;4926106;29;20208;-89
2021/03/21 09:25:19;;;;;;;24.60;4.93;;;6.00;99.90;;;;;;4924583;29;20263;-92
2021/03/21 09:27:45;;;;;;;38.30;6.33;;;5.90;99.90;;;;;;4925192;29;20178;-90
2021/03/21 09:30:38;;;;;;;29.07;5.03;;;6.00;99.90;;;;;;4924382;29;20296;-96
2021/03/21 09:33:31;;;;;;;26.30;5.70;;;5.90;99.90;;;;;;4924589;29;20187;-91
2021/03/21 09:36:09;;;;;;;22.27;5.17;;;5.90;99.90;;;;;;4882477;29;20186;-92
2021/03/21 09:38:49;;;;;;;33.73;5.07;;;5.90;99.90;;;;;;4924182;29;20189;-92
2021/03/21 09:41:16;;;;;;;35.53;6.13;;;5.90;99.90;;;;;;4930622;29;20208;-91
2021/03/21 09:43:42;;;;;;;31.40;5.50;;;5.90;99.90;;;;;;4930403;29;20186;-93
2021/03/21 09:46:46;;;;;;;30.20;5.10;;;5.90;99.90;;;;;;4930803;29;20217;-92
2021/03/21 09:49:36;;;;;;;34.13;5.60;;;6.00;99.90;;;;;;4930387;29;20188;-92
2021/03/21 09:52:11;;;;;;;33.27;5.63;;;6.00;99.90;;;;;;4947329;29;20172;-93
2021/03/21 09:55:14;;;;;;;29.03;5.37;;;6.00;99.90;;;;;;4929496;29;20181;-93
2021/03/21 09:57:45;;;;;;;36.87;5.53;;;6.00;99.90;;;;;;4928936;29;20268;-92
2021/03/21 10:00:34;;;;;;;31.03;5.37;;;6.00;99.90;;;;;;4945677;29;20186;-92
2021/03/21 10:03:09;;;;;;;29.70;5.93;;;6.00;99.90;;;;;;4929296;29;20237;-92
2021/03/21 10:05:41;;;;;;;34.23;5.20;;;6.00;99.90;;;;;;4932350;29;20280;-93
2021/03/21 10:08:24;;;;;;;33.43;7.03;;;6.10;99.90;;;;;;4930176;29;20178;-93
2021/03/21 10:11:00;;;;;;;27.60;5.87;;;6.10;99.90;;;;;;4930917;29;20166;-92
2021/03/21 10:13:56;;;;;;;31.00;5.67;;;6.10;99.90;;;;;;4927500;29;20559;-92
2021/03/21 10:16:24;;;;;;;35.97;6.07;;;6.20;99.90;;;;;;4908446;29;20285;-92
2021/03/21 10:18:58;;;;;;;33.57;6.07;;;6.20;99.90;;;;;;4924048;29;20686;-96
2021/03/21 10:21:23;;;;;;;30.47;5.93;;;6.30;99.90;;;;;;4923588;29;20178;-96
2021/03/21 10:23:56;;;;;;;34.10;5.87;;;6.30;99.90;;;;;;4923590;29;20656;-92
2021/03/21 10:26:25;;;;;;;37.30;5.20;;;6.30;99.90;;;;;;4924790;29;20228;-94
2021/03/21 10:28:53;;;;;;;29.70;6.10;;;6.40;99.90;;;;;;4924281;29;20186;-93
2021/03/21 10:31:26;;;;;;;36.47;6.20;;;6.50;99.90;;;;;;4936195;29;20248;-94
2021/03/21 10:34:04;;;;;;;37.77;6.33;;;6.40;99.90;;;;;;4944748;29;20236;-93
2021/03/21 10:36:39;;;;;;;32.97;5.80;;;6.50;99.90;;;;;;4962013;28;20189;-92
2021/03/21 10:39:06;;;;;;;29.10;6.07;;;6.60;99.90;;;;;;4944078;29;20184;-93
2021/03/21 10:42:00;;;;;;;37.33;6.10;;;6.60;99.90;;;;;;4944964;29;20181;-93
2021/03/21 10:44:30;;;;;;;39.77;6.20;;;6.60;99.90;;;;;;4945493;29;20554;-93
2021/03/21 10:46:57;;;;;;;29.57;6.43;;;6.60;99.90;;;;;;4945698;29;20194;-91
2021/03/21 10:49:46;;;;;;;35.40;6.40;;;6.70;99.90;;;;;;4946302;29;20274;-92
2021/03/21 10:52:23;;;;;;;32.67;6.33;;;6.80;99.90;;;;;;4945602;29;20280;-93
2021/03/21 10:55:08;;;;;;;34.00;6.30;;;6.80;99.90;;;;;;4943990;29;20173;-92
2021/03/21 10:57:41;;;;;;;30.13;5.77;;;6.90;99.90;;;;;;4943544;29;20232;-93
2021/03/21 11:00:22;;;;;;;41.33;6.93;;;6.90;99.90;;;;;;4942802;29;20229;-93
2021/03/21 11:03:11;;;;;;;33.27;6.07;;;7.00;99.90;;;;;;4925035;29;20229;-94
2021/03/21 11:05:45;;;;;;;29.03;6.40;;;7.10;99.90;;;;;;4909785;29;20260;-95
2021/03/21 11:08:25;;;;;;;26.57;6.03;;;7.20;99.90;;;;;;4925623;29;20196;-96
2021/03/21 11:10:59;;;;;;;32.83;5.60;;;7.20;99.90;;;;;;4925754;29;20182;-96
2021/03/21 11:13:34;;;;;;;29.60;5.40;;;7.20;99.90;;;;;;4926995;29;20193;-93
2021/03/21 11:16:10;;;;;;;34.80;6.33;;;7.30;99.90;;;;;;4924150;29;20236;-95
2021/03/21 11:18:37;;;;;;;33.53;6.13;;;7.30;99.90;;;;;;4926798;29;20181;-96
2021/03/21 11:21:07;;;;;;;28.57;6.03;;;7.30;99.90;;;;;;4926269;29;20178;-96
2021/03/21 11:24:01;;;;;;;34.43;6.63;;;7.50;99.90;;;;;;4924408;29;20609;-96
2021/03/21 11:26:27;;;;;;;36.30;6.57;;;7.60;99.90;;;;;;4924754;29;20205;-96
2021/03/21 11:29:09;;;;;;;37.87;6.60;;;7.60;99.90;;;;;;4925353;29;20276;-94
2021/03/21 11:31:38;;;;;;;41.73;7.17;;;7.60;99.90;;;;;;4924372;29;20224;-95
2021/03/21 11:34:20;;;;;;;31.70;6.03;;;7.40;99.90;;;;;;4923879;29;20182;-95
2021/03/21 11:36:57;;;;;;;37.57;5.60;;;7.50;99.90;;;;;;4925962;29;20188;-95
2021/03/21 11:39:39;;;;;;;36.80;5.77;;;7.60;99.90;;;;;;4924687;29;20154;-94
2021/03/21 11:42:30;;;;;;;29.83;6.30;;;7.60;99.90;;;;;;4923170;29;20264;-96
2021/03/21 11:45:23;;;;;;;31.17;6.43;;;7.60;99.90;;;;;;4926024;29;20205;-91
2021/03/21 11:48:09;;;;;;;33.80;5.30;;;7.50;99.90;;;;;;4925602;29;20269;-93
2021/03/21 11:50:38;;;;;;;47.07;6.47;;;7.60;99.90;;;;;;4911252;29;20200;-93
2021/03/21 11:53:07;;;;;;;29.57;5.30;;;7.60;99.90;;;;;;4923720;29;20178;-91
2021/03/21 11:55:39;;;;;;;39.43;7.47;;;7.60;99.90;;;;;;4924819;29;20188;-93
2021/03/21 11:58:16;;;;;;;41.67;8.50;;;7.60;99.90;;;;;;4925136;29;20592;-93
2021/03/21 12:01:10;;;;;;;34.23;5.50;;;7.80;99.90;;;;;;4940684;29;20643;-91
2021/03/21 12:03:49;;;;;;;27.80;5.77;;;7.80;99.90;;;;;;4911026;29;20294;-93
2021/03/21 12:06:41;;;;;;;30.97;6.00;;;7.90;99.90;;;;;;4923895;29;20210;-92
2021/03/21 12:09:19;;;;;;;28.47;5.93;;;7.90;99.90;;;;;;4923910;29;20174;-92
2021/03/21 12:11:47;;;;;;;27.87;5.73;;;8.00;99.90;;;;;;4923590;29;20217;-92
2021/03/21 12:14:43;;;;;;;32.57;6.23;;;8.20;99.90;;;;;;4923908;29;20225;-93
2021/03/21 12:17:24;;;;;;;33.07;5.60;;;8.30;99.90;;;;;;4923428;29;20679;-92
2021/03/21 12:19:55;;;;;;;27.60;5.73;;;8.20;99.90;;;;;;4923047;29;20229;-92
2021/03/21 12:22:39;;;;;;;30.40;5.30;;;8.20;99.90;;;;;;4921880;29;20280;-92
2021/03/21 12:25:33;;;;;;;32.63;5.37;;;8.20;99.90;;;;;;4922915;29;20241;-93
2021/03/21 12:28:20;;;;;;;30.03;5.93;;;8.30;99.90;;;;;;4915428;29;20186;-93
2021/03/21 12:30:52;;;;;;;22.13;4.77;;;8.50;99.90;;;;;;4928655;29;20189;-96
2021/03/21 12:33:31;;;;;;;34.17;6.67;;;8.70;99.90;;;;;;4939919;29;20180;-93
2021/03/21 12:36:12;;;;;;;32.00;6.00;;;8.70;99.90;;;;;;4940020;29;20184;-96
2021/03/21 12:38:44;;;;;;;32.33;5.47;;;8.70;99.90;;;;;;4943775;29;20231;-93
2021/03/21 12:41:29;;;;;;;25.40;4.73;;;8.90;99.90;;;;;;4944375;29;20173;-91
2021/03/21 12:44:20;;;;;;;29.97;5.07;;;8.80;99.90;;;;;;4944383;29;20177;-93
2021/03/21 12:46:48;;;;;;;24.93;4.87;;;9.00;99.90;;;;;;4949153;29;20189;-95
2021/03/21 12:49:38;;;;;;;21.37;5.40;;;8.90;99.90;;;;;;4951661;29;20628;-96
2021/03/21 12:52:42;;;;;;;30.90;5.43;;;8.90;99.90;;;;;;4950557;29;20161;-96
2021/03/21 12:55:15;;;;;;;26.73;5.37;;;8.80;99.90;;;;;;4950996;29;20176;-95
2021/03/21 12:57:43;;;;;;;26.50;5.53;;;8.80;99.90;;;;;;4950836;29;20201;-96
2021/03/21 13:00:16;;;;;;;32.20;5.27;;;8.80;99.90;;;;;;4964534;29;20189;-93
2021/03/21 13:02:42;;;;;;;27.07;5.03;;;8.80;99.90;;;;;;4932540;29;20178;-96
2021/03/21 13:05:21;;;;;;;27.33;5.70;;;8.90;99.90;;;;;;4933674;29;20310;-94
2021/03/21 13:07:47;;;;;;;20.43;4.60;;;8.90;99.90;;;;;;4948145;29;20172;-96
2021/03/21 13:10:14;;;;;;;26.67;5.10;;;8.90;99.90;;;;;;4931332;29;20253;-95
2021/03/21 13:12:39;;;;;;;33.40;5.73;;;8.80;99.90;;;;;;4933679;29;20170;-96
2021/03/21 13:15:08;;;;;;;23.03;5.37;;;8.80;99.90;;;;;;4929384;29;20210;-92
2021/03/21 13:17:33;;;;;;;29.73;6.20;;;9.00;99.90;;;;;;4931487;29;20205;-96
2021/03/21 13:19:59;;;;;;;23.53;5.53;;;8.90;99.90;;;;;;4931828;29;20622;-96
2021/03/21 13:22:25;;;;;;;19.37;4.53;;;8.90;99.90;;;;;;4934966;29;20625;-92
2021/03/21 13:24:51;;;;;;;21.97;4.60;;;9.00;99.90;;;;;;4931863;29;20560;-94
2021/03/21 13:27:16;;;;;;;23.23;4.60;;;9.00;99.90;;;;;;4932488;29;20587;-93
2021/03/21 13:29:42;;;;;;;22.20;4.57;;;9.00;99.90;;;;;;4933151;29;20569;-93
2021/03/21 13:32:09;;;;;;;24.57;4.97;;;9.10;99.90;;;;;;4932109;29;20190;-92
2021/03/21 13:34:35;;;;;;;22.07;4.40;;;9.20;99.90;;;;;;4931731;29;20269;-93
2021/03/21 13:37:02;;;;;;;25.57;5.00;;;9.10;99.90;;;;;;4930343;29;20604;-92
2021/03/21 13:39:29;;;;;;;22.83;5.03;;;9.00;99.90;;;;;;4932052;29;20225;-93
2021/03/21 13:41:55;;;;;;;21.27;4.70;;;9.00;99.90;;;;;;4933519;29;20249;-92
2021/03/21 13:44:21;;;;;;;22.33;5.10;;;8.90;99.90;;;;;;4932085;29;20220;-95
2021/03/21 13:46:47;;;;;;;23.30;4.43;;;8.80;99.90;;;;;;4924811;29;20193;-94
2021/03/21 13:49:13;;;;;;;27.97;6.13;;;8.80;99.90;;;;;;4923818;29;20245;-92
2021/03/21 13:51:39;;;;;;;26.13;5.27;;;8.90;99.90;;;;;;4940900;29;20182;-92
2021/03/21 13:54:05;;;;;;;20.73;4.20;;;9.00;99.90;;;;;;4923844;29;20188;-92
2021/03/21 13:56:31;;;;;;;23.77;5.30;;;8.90;99.90;;;;;;4924003;29;20186;-92